1893 Hurricane NOT_NAMED (1893225N12331)


IBTrACS version v04r00. Visit IBTrACS website for data access.
Please direct all questions to the IBTrACS Q and A forum

Storm track - Intensity - Wind Radii - Intensity Data - Source Data - All data

Summary Information

Storm ID 1893225N12331
Start Aug 13 06Z
Landfall Aug 24 12Z, Aug 25 18Z, Aug 26 06Z
Max Intensity 100 kt (Aug 22 18Z), 952 mb (Aug 23 00Z)
End Aug 26 18Z
ATCF IDs ,AL041893
Track status Best track data.

Storm track plot

Map of storm track

Intensity plots

Map of storm track

Radial wind information

No radial wind information for this storm


Position and Intensity Table

BASIN ISO_TIME_________ NATURE LAT LON WMO WIND WMO PRES USA WIND USA PRES MLC WIND MLC PRES
degrees north degrees east kts mb kts mb kts mb
NA 1893-08-13 06:00:00 TS 11.80 -29.00 30
NA 09:00:00 TS 11.90 -29.51 32
NA 12:00:00 TS 12.00 -30.00 35
NA 15:00:00 TS 12.10 -30.46 37
NA 18:00:00 TS 12.20 -30.90 40
NA 21:00:00 TS 12.30 -31.35 45
NA 1893-08-14 00:00:00 TS 12.40 -31.80 50
NA 03:00:00 TS 12.50 -32.25 55
NA 06:00:00 TS 12.60 -32.70 60
NA 09:00:00 TS 12.70 -33.15 60
NA 12:00:00 TS 12.80 -33.60 60
NA 15:00:00 TS 12.90 -34.04 62
NA 18:00:00 TS 13.00 -34.50 65
NA 21:00:00 TS 13.10 -34.99 65
NA 1893-08-15 00:00:00 TS 13.20 -35.50 65
NA 03:00:00 TS 13.30 -35.99 65
NA 06:00:00 TS 13.60 -36.50 35 35 65
NA 09:00:00 TS 13.80 -37.12 37 65
NA 12:00:00 TS 13.96 -37.70 40 40 65
NA 15:00:00 TS 14.09 -38.17 42 65
NA 18:00:00 TS 14.20 -38.60 45 45 65
NA 21:00:00 TS 14.35 -39.10 45 65
NA 1893-08-16 00:00:00 TS 14.50 -39.60 45 45 65
NA 03:00:00 TS 14.61 -40.05 47 65
NA 06:00:00 TS 14.70 -40.50 50 50 65
NA 09:00:00 TS 14.80 -40.99 52 65
NA 12:00:00 TS 14.90 -41.50 55 55 65
NA 15:00:00 TS 15.01 -42.04 57 65
NA 18:00:00 TS 15.13 -42.60 60 60 65
NA 21:00:00 TS 15.26 -43.15 62 65
NA 1893-08-17 00:00:00 TS 15.40 -43.70 65 65 65
NA 03:00:00 TS 15.54 -44.25 65 65
NA 06:00:00 TS 15.67 -44.80 65 65 65
NA 09:00:00 TS 15.77 -45.36 67 67
NA 12:00:00 TS 15.87 -45.90 70 70 70
NA 15:00:00 TS 16.00 -46.41 72 72
NA 18:00:00 TS 16.13 -46.90 75 75 75
NA 21:00:00 TS 16.25 -47.40 77 77
NA 1893-08-18 00:00:00 TS 16.37 -47.90 80 80 80
NA 03:00:00 TS 16.51 -48.40 82 82
NA 06:00:00 TS 16.67 -48.90 85 85 85
NA 09:00:00 TS 16.84 -49.37 85 85
NA 12:00:00 TS 17.03 -49.90 85 85 85
NA 15:00:00 TS 17.26 -50.57 85 85
NA 18:00:00 TS 17.50 -51.30 85 85 85
NA 21:00:00 TS 17.73 -52.01 85 85
NA 1893-08-19 00:00:00 TS 17.97 -52.73 85 85 85
NA 03:00:00 TS 18.22 -53.48 85 85
NA 06:00:00 TS 18.50 -54.20 85 85 85
NA 09:00:00 TS 18.79 -54.85 85 87
NA 12:00:00 TS 19.10 -55.47 85 85 90
NA 15:00:00 TS 19.42 -56.08 85 90
NA 18:00:00 TS 19.73 -56.67 85 85 90
NA 21:00:00 TS 20.03 -57.24 85 90
NA 1893-08-20 00:00:00 TS 20.33 -57.80 85 85 90
NA 03:00:00 TS 20.67 -58.37 85 90
NA 06:00:00 TS 21.00 -58.93 85 85 90
NA 09:00:00 TS 21.30 -59.49 85 90
NA 12:00:00 TS 21.60 -60.03 85 85 90
NA 15:00:00 TS 21.90 -60.59 85 90
NA 18:00:00 TS 22.20 -61.13 85 85 90
NA 21:00:00 TS 22.47 -61.63 85 90
NA 1893-08-21 00:00:00 TS 22.73 -62.13 85 85 90
NA 03:00:00 TS 23.03 -62.68 85 90
NA 06:00:00 TS 23.33 -63.23 85 85 90
NA 09:00:00 TS 23.63 -63.76 85 90
NA 12:00:00 TS 23.93 -64.30 85 85 90
NA 15:00:00 TS 24.22 -64.87 85 92
NA 18:00:00 TS 24.53 -65.47 85 85 95
NA 21:00:00 TS 24.90 -66.08 85 95
NA 1893-08-22 00:00:00 TS 25.30 -66.70 85 85 95
NA 03:00:00 TS 25.72 -67.31 87 95
NA 06:00:00 TS 26.17 -67.93 90 90 95
NA 09:00:00 TS 26.58 -68.58 92 95
NA 12:00:00 TS 27.07 -69.20 95 95 95
NA 15:00:00 TS 27.71 -69.76 97 97
NA 18:00:00 TS 28.43 -70.30 100 100 100
NA 21:00:00 TS 29.13 -70.87 100 100
NA 1893-08-23 00:00:00 TS 29.87 -71.40 100 952 100 952 100 952
NA 03:00:00 TS 30.66 -71.86 100 100
NA 06:00:00 TS 31.50 -72.27 100 100 100
NA 09:00:00 TS 32.33 -72.66 100 100
NA 12:00:00 TS 33.20 -73.00 100 100 100
NA 15:00:00 TS 34.11 -73.27 97 97
NA 18:00:00 TS 35.03 -73.47 95 95 95 958
NA 21:00:00 TS 35.91 -73.65 90 90 959
NA 1893-08-24 00:00:00 TS 36.80 -73.77 85 85 85 960
NA 03:00:00 TS 37.71 -73.80 82 82 966
NA 06:00:00 TS 38.67 -73.80 80 80 80 973
NA 09:00:00 TS 39.65 -73.92 77 77 979
NA 12:00:00 TS 40.70 -73.90 75 986 75 986 75 986
NA 15:00:00 TS 41.82 -73.60 67 67
NA 18:00:00 TS 43.00 -73.00 60 60 60
NA 21:00:00 TS 44.22 -72.12 57 57
NA 1893-08-25 00:00:00 ET 45.40 -71.00 55 55 55
NA 03:00:00 ET 46.44 -69.78 52 52
NA 06:00:00 ET 47.40 -68.50 50 50 50
NA 09:00:00 ET 48.40 -67.28 45 45
NA 12:00:00 ET 49.30 -66.00 40 40 40
NA 15:00:00 ET 50.05 -64.62 42 42
NA 18:00:00 ET 50.60 -63.10 45 45 45
NA 21:00:00 ET 50.95 -61.42 42 42
NA 1893-08-26 00:00:00 ET 51.10 -59.70 40 40 40
NA 03:00:00 ET 51.17 -58.05 40 40
NA 06:00:00 ET 51.10 -56.50 40 40 40
NA 09:00:00 ET 50.95 -55.09 40 40
NA 12:00:00 ET 50.70 -53.80 40 40 40
NA 15:00:00 ET 50.37 -52.58 40 40
NA 18:00:00 ET 50.00 -51.40 40 40 40

Source Information

Agency Information
USA hurdat2-1851-2019-042820.txt:Line=7542:UNNAMED
TOKYO
CMA
HKO
NEWDELHI
REUNION
BOM
NADI
WELLINGTON
DS824
TD9636
TD9635
NEUMANN
MLC

All available IBTrACS Data

SEASON BASIN SUBBASIN ISO_TIME_________ NATURE LAT LON WMO WIND WMO PRES WMO AGENCY DIST2LAND LANDFALL IFLAG USA AGENCY USA ATCF_ID USA LAT USA LON USA RECORD USA STATUS USA WIND USA PRES USA SSHS MLC LAT MLC LON MLC CLASS MLC WIND MLC PRES STORM SPEED STORM DIR
Year degrees north degrees east kts mb km km degrees north degrees east kts mb 1 degrees north degrees east kts mb kts degrees
1893 NA NA 1893-08-13 06:00:00 TS 11.80 -29.00 1286 1286 _____________O -1 11.80 -29.00 TD 30 10 281
1893 NA NA 09:00:00 TS 11.90 -29.51 1336 1336 _____________P -1 11.90 -29.51 TD 32 10 282
1893 NA NA 12:00:00 TS 12.00 -30.00 1386 1386 _____________O -1 12.00 -30.00 TS 35 9 282
1893 NA NA 15:00:00 TS 12.10 -30.46 1436 1436 _____________P -1 12.10 -30.46 TS 37 9 283
1893 NA NA 18:00:00 TS 12.20 -30.90 1476 1476 _____________O -1 12.20 -30.90 TS 40 9 283
1893 NA NA 21:00:00 TS 12.30 -31.35 1527 1527 _____________P -1 12.30 -31.35 TS 45 9 283
1893 NA NA 1893-08-14 00:00:00 TS 12.40 -31.80 1567 1567 _____________O -1 12.40 -31.80 TS 50 9 283
1893 NA NA 03:00:00 TS 12.50 -32.25 1618 1618 _____________P -1 12.50 -32.25 TS 55 9 283
1893 NA NA 06:00:00 TS 12.60 -32.70 1659 1659 _____________O -1 12.60 -32.70 TS 60 9 283
1893 NA NA 09:00:00 TS 12.70 -33.15 1711 1711 _____________P -1 12.70 -33.15 TS 60 9 283
1893 NA NA 12:00:00 TS 12.80 -33.60 1752 1752 _____________O -1 12.80 -33.60 TS 60 9 283
1893 NA NA 15:00:00 TS 12.90 -34.04 1793 1793 _____________P -1 12.90 -34.04 TS 62 9 283
1893 NA NA 18:00:00 TS 13.00 -34.50 1845 1845 _____________O -1 13.00 -34.50 HU 65 9 282
1893 NA NA 21:00:00 TS 13.10 -34.99 1869 1863 _____________P -1 13.10 -34.99 HU 65 10 282
1893 NA NA 1893-08-15 00:00:00 TS 13.20 -35.50 1865 1857 _____________O -1 13.20 -35.50 HU 65 10 282
1893 NA NA 03:00:00 TS 13.30 -35.99 1862 1860 _____________P -1 13.30 -35.99 HU 65 11 292
1893 NA NA 06:00:00 TS 13.60 -36.50 35 hurdat_atl 1884 1882 O____________O hurdat_atl AL041893 14.00 -36.50 TS 35 0 13.40 -36.50 HU 65 12 294
1893 NA NA 09:00:00 TS 13.80 -37.12 1887 1845 P____________P AL041893 14.10 -37.13 TS 37 0 13.50 -37.11 HU 65 12 287
1893 NA NA 12:00:00 TS 13.96 -37.70 40 hurdat_atl 1845 1817 O____________O hurdat_atl AL041893 14.20 -37.70 TS 40 0 13.60 -37.70 HU 65 11 286
1893 NA NA 15:00:00 TS 14.09 -38.17 1808 1780 P____________P AL041893 14.29 -38.17 TS 42 0 13.69 -38.17 HU 65 9 285
1893 NA NA 18:00:00 TS 14.20 -38.60 45 hurdat_atl 1780 1744 O____________O hurdat_atl AL041893 14.40 -38.60 TS 45 0 13.80 -38.60 HU 65 9 286
1893 NA NA 21:00:00 TS 14.35 -39.10 1744 1717 P____________P AL041893 14.55 -39.10 TS 45 0 13.95 -39.10 HU 65 10 287
1893 NA NA 1893-08-16 00:00:00 TS 14.50 -39.60 45 hurdat_atl 1717 1692 O____________O hurdat_atl AL041893 14.70 -39.60 TS 45 0 14.10 -39.60 HU 65 10 286
1893 NA NA 03:00:00 TS 14.61 -40.05 1684 1660 P____________P AL041893 14.81 -40.05 TS 47 0 14.21 -40.05 HU 65 9 283
1893 NA NA 06:00:00 TS 14.70 -40.50 50 hurdat_atl 1660 1630 O____________O hurdat_atl AL041893 14.90 -40.50 TS 50 0 14.30 -40.50 HU 65 9 282
1893 NA NA 09:00:00 TS 14.80 -40.99 1630 1600 P____________P AL041893 15.00 -40.99 TS 52 0 14.39 -40.99 HU 65 10 282
1893 NA NA 12:00:00 TS 14.90 -41.50 55 hurdat_atl 1600 1572 O____________O hurdat_atl AL041893 15.10 -41.50 TS 55 0 14.50 -41.50 HU 65 10 282
1893 NA NA 15:00:00 TS 15.01 -42.04 1572 1539 P____________P AL041893 15.19 -42.04 TS 57 0 14.65 -42.04 HU 65 11 282
1893 NA NA 18:00:00 TS 15.13 -42.60 60 hurdat_atl 1539 1515 O____________O hurdat_atl AL041893 15.30 -42.60 TS 60 0 14.80 -42.60 HU 65 11 283
1893 NA NA 21:00:00 TS 15.26 -43.15 1517 1495 P____________P AL041893 15.44 -43.15 TS 62 0 14.91 -43.15 HU 65 11 284
1893 NA NA 1893-08-17 00:00:00 TS 15.40 -43.70 65 hurdat_atl 1495 1474 O____________O hurdat_atl AL041893 15.60 -43.70 HU 65 1 15.00 -43.70 HU 65 11 284
1893 NA NA 03:00:00 TS 15.54 -44.25 1467 1449 P____________P AL041893 15.76 -44.25 HU 65 1 15.10 -44.25 HU 65 11 284
1893 NA NA 06:00:00 TS 15.67 -44.80 65 hurdat_atl 1452 1427 O____________O hurdat_atl AL041893 15.90 -44.80 HU 65 1 15.20 -44.80 HU 65 11 282
1893 NA NA 09:00:00 TS 15.77 -45.36 1424 1400 P____________P AL041893 16.01 -45.36 HU 67 1 15.28 -45.36 HU 67 11 281
1893 NA NA 12:00:00 TS 15.87 -45.90 70 hurdat_atl 1404 1386 O____________O hurdat_atl AL041893 16.10 -45.90 HU 70 1 15.40 -45.90 HU 70 10 283
1893 NA NA 15:00:00 TS 16.00 -46.41 1386 1370 P____________P AL041893 16.20 -46.41 HU 72 1 15.59 -46.41 HU 72 10 286
1893 NA NA 18:00:00 TS 16.13 -46.90 75 hurdat_atl 1370 1355 O____________O hurdat_atl AL041893 16.30 -46.90 HU 75 1 15.80 -46.90 HU 75 10 285
1893 NA NA 21:00:00 TS 16.25 -47.40 1355 1347 P____________P AL041893 16.39 -47.40 HU 77 1 15.96 -47.40 HU 77 10 284
1893 NA NA 1893-08-18 00:00:00 TS 16.37 -47.90 80 hurdat_atl 1353 1340 O____________O hurdat_atl AL041893 16.50 -47.90 HU 80 1 16.10 -47.90 HU 80 10 285
1893 NA NA 03:00:00 TS 16.51 -48.40 1343 1334 P____________P AL041893 16.63 -48.40 HU 82 1 16.25 -48.40 HU 82 10 287
1893 NA NA 06:00:00 TS 16.67 -48.90 85 hurdat_atl 1340 1330 O____________O hurdat_atl AL041893 16.80 -48.90 HU 85 2 16.40 -48.90 HU 85 10 290
1893 NA NA 09:00:00 TS 16.84 -49.37 1327 1327 P____________P AL041893 16.99 -49.37 HU 85 2 16.53 -49.37 HU 85 10 291
1893 NA NA 12:00:00 TS 17.03 -49.90 85 hurdat_atl 1328 1327 O____________O hurdat_atl AL041893 17.20 -49.90 HU 85 2 16.70 -49.90 HU 85 12 290
1893 NA NA 15:00:00 TS 17.26 -50.57 1335 1293 P____________P AL041893 17.40 -50.56 HU 85 2 16.98 -50.59 HU 85 14 289
1893 NA NA 18:00:00 TS 17.50 -51.30 85 hurdat_atl 1293 1246 O____________O hurdat_atl AL041893 17.60 -51.30 HU 85 2 17.30 -51.30 HU 85 15 289
1893 NA NA 21:00:00 TS 17.73 -52.01 1246 1203 P____________P AL041893 17.79 -52.09 HU 85 2 17.60 -51.87 HU 85 14 289
1893 NA NA 1893-08-19 00:00:00 TS 17.97 -52.73 85 hurdat_atl 1211 1171 O____________O hurdat_atl AL041893 18.00 -52.90 HU 85 2 17.90 -52.40 HU 85 15 290
1893 NA NA 03:00:00 TS 18.22 -53.48 1164 1138 P____________P AL041893 18.23 -53.72 HU 85 2 18.20 -52.99 HU 85 15 291
1893 NA NA 06:00:00 TS 18.50 -54.20 85 hurdat_atl 1138 1122 O____________O hurdat_atl AL041893 18.50 -54.50 HU 85 2 18.50 -53.60 HU 85 14 294
1893 NA NA 09:00:00 TS 18.79 -54.85 1118 1076 P____________P AL041893 18.79 -55.18 HU 85 2 18.79 -54.20 HU 87 13 297
1893 NA NA 12:00:00 TS 19.10 -55.47 85 hurdat_atl 1066 1016 O____________O hurdat_atl AL041893 19.10 -55.80 HU 85 2 19.10 -54.80 HU 90 13 298
1893 NA NA 15:00:00 TS 19.42 -56.08 1005 956 P____________P AL041893 19.40 -56.42 HU 85 2 19.45 -55.40 HU 90 13 299
1893 NA NA 18:00:00 TS 19.73 -56.67 85 hurdat_atl 946 899 O____________O hurdat_atl AL041893 19.70 -57.00 HU 85 2 19.80 -56.00 HU 90 13 299
1893 NA NA 21:00:00 TS 20.03 -57.24 899 845 P____________P AL041893 19.99 -57.56 HU 85 2 20.11 -56.60 HU 90 12 299
1893 NA NA 1893-08-20 00:00:00 TS 20.33 -57.80 85 hurdat_atl 845 803 O____________O hurdat_atl AL041893 20.30 -58.10 HU 85 2 20.40 -57.20 HU 90 12 301
1893 NA NA 03:00:00 TS 20.67 -58.37 796 759 P____________P AL041893 20.65 -58.65 HU 85 2 20.70 -57.81 HU 90 13 302
1893 NA NA 06:00:00 TS 21.00 -58.93 85 hurdat_atl 759 715 O____________O hurdat_atl AL041893 21.00 -59.20 HU 85 2 21.00 -58.40 HU 90 12 301
1893 NA NA 09:00:00 TS 21.30 -59.49 715 685 P____________P AL041893 21.31 -59.75 HU 85 2 21.30 -58.96 HU 90 12 300
1893 NA NA 12:00:00 TS 21.60 -60.03 85 hurdat_atl 685 652 O____________O hurdat_atl AL041893 21.60 -60.30 HU 85 2 21.60 -59.50 HU 90 12 300
1893 NA NA 15:00:00 TS 21.90 -60.59 652 633 P____________P AL041893 21.91 -60.86 HU 85 2 21.90 -60.06 HU 90 12 300
1893 NA NA 18:00:00 TS 22.20 -61.13 85 hurdat_atl 633 611 O____________O hurdat_atl AL041893 22.20 -61.40 HU 85 2 22.20 -60.60 HU 90 11 300
1893 NA NA 21:00:00 TS 22.47 -61.63 619 600 P____________P AL041893 22.45 -61.90 HU 85 2 22.50 -61.10 HU 90 11 300
1893 NA NA 1893-08-21 00:00:00 TS 22.73 -62.13 85 hurdat_atl 603 597 O____________O hurdat_atl AL041893 22.70 -62.40 HU 85 2 22.80 -61.60 HU 90 11 300
1893 NA NA 03:00:00 TS 23.03 -62.68 596 595 P____________P AL041893 22.99 -62.94 HU 85 2 23.10 -62.15 HU 90 12 301
1893 NA NA 06:00:00 TS 23.33 -63.23 85 hurdat_atl 601 601 O____________O hurdat_atl AL041893 23.30 -63.50 HU 85 2 23.40 -62.70 HU 90 12 301
1893 NA NA 09:00:00 TS 23.63 -63.76 610 610 P____________P AL041893 23.61 -64.04 HU 85 2 23.68 -63.20 HU 90 11 302
1893 NA NA 12:00:00 TS 23.93 -64.30 85 hurdat_atl 629 629 O____________O hurdat_atl AL041893 23.90 -64.60 HU 85 2 24.00 -63.70 HU 90 12 300
1893 NA NA 15:00:00 TS 24.22 -64.87 652 652 P____________P AL041893 24.13 -65.19 HU 85 2 24.39 -64.24 HU 92 12 299
1893 NA NA 18:00:00 TS 24.53 -65.47 85 hurdat_atl 682 682 O____________O hurdat_atl AL041893 24.40 -65.80 HU 85 2 24.80 -64.80 HU 95 13 302
1893 NA NA 21:00:00 TS 24.90 -66.08 707 707 P____________P AL041893 24.77 -66.44 HU 85 2 25.15 -65.35 HU 95 14 304
1893 NA NA 1893-08-22 00:00:00 TS 25.30 -66.70 85 hurdat_atl 721 716 O____________O hurdat_atl AL041893 25.20 -67.10 HU 85 2 25.50 -65.90 HU 95 14 306
1893 NA NA 03:00:00 TS 25.72 -67.31 735 735 P____________P AL041893 25.63 -67.74 HU 87 2 25.90 -66.46 HU 95 14 308
1893 NA NA 06:00:00 TS 26.17 -67.93 90 hurdat_atl 762 745 O____________O hurdat_atl AL041893 26.10 -68.40 HU 90 2 26.30 -67.00 HU 95 14 307
1893 NA NA 09:00:00 TS 26.58 -68.58 750 748 P____________P AL041893 26.57 -69.13 HU 92 2 26.60 -67.47 HU 95 14 308
1893 NA NA 12:00:00 TS 27.07 -69.20 95 hurdat_atl 763 758 O____________O hurdat_atl AL041893 27.10 -69.80 HU 95 2 27.00 -68.00 HU 95 16 317
1893 NA NA 15:00:00 TS 27.71 -69.76 795 795 P____________P AL041893 27.72 -70.29 HU 97 3 27.69 -68.71 HU 97 17 325
1893 NA NA 18:00:00 TS 28.43 -70.30 100 hurdat_atl 847 823 O____________O hurdat_atl AL041893 28.40 -70.70 HU 100 3 28.50 -69.50 MH 100 17 326
1893 NA NA 21:00:00 TS 29.13 -70.87 817 726 P____________P AL041893 29.08 -71.15 HU 100 3 29.24 -70.30 MH 100 17 326
1893 NA NA 1893-08-23 00:00:00 TS 29.87 -71.40 100 952 hurdat_atl 717 633 O____________O hurdat_atl AL041893 29.80 -71.60 HU 100 952 3 30.00 -71.00 MH 100 952 18 331
1893 NA NA 03:00:00 TS 30.66 -71.86 619 535 P____________P AL041893 30.58 -72.07 HU 100 3 30.83 -71.45 MH 100 18 335
1893 NA NA 06:00:00 TS 31.50 -72.27 100 hurdat_atl 528 448 O____________O hurdat_atl AL041893 31.40 -72.50 HU 100 3 31.70 -71.80 MH 100 18 338
1893 NA NA 09:00:00 TS 32.33 -72.66 441 357 P____________P AL041893 32.23 -72.88 HU 100 3 32.55 -72.23 MH 100 18 340
1893 NA NA 12:00:00 TS 33.20 -73.00 100 hurdat_atl 357 275 O____________O hurdat_atl AL041893 33.10 -73.20 HU 100 3 33.40 -72.60 MH 100 19 344
1893 NA NA 15:00:00 TS 34.11 -73.27 275 201 P____________P AL041893 34.04 -73.48 HU 97 3 34.25 -72.84 MH 97 19 348
1893 NA NA 18:00:00 TS 35.03 -73.47 95 hurdat_atl 201 170 O____________O hurdat_atl AL041893 35.00 -73.70 HU 95 2 35.10 -73.00 HU 95 958 18 350
1893 NA NA 21:00:00 TS 35.91 -73.65 171 163 P____________P AL041893 35.91 -73.89 HU 90 2 35.93 -73.16 HU 90 959 18 352
1893 NA NA 1893-08-24 00:00:00 TS 36.80 -73.77 85 hurdat_atl 182 131 O____________O hurdat_atl AL041893 36.80 -74.00 HU 85 2 36.80 -73.30 HU 85 960 18 356
1893 NA NA 03:00:00 TS 37.71 -73.80 131 95 P____________P AL041893 37.68 -73.97 HU 82 1 37.78 -73.45 HU 82 966 19 360
1893 NA NA 06:00:00 TS 38.67 -73.80 80 hurdat_atl 89 27 O____________I hurdat_atl AL041893 38.60 -73.90 HU 80 1 38.80 -73.60 HU 80 973 19 357
1893 NA NA 09:00:00 TS 39.65 -73.92 25 0 P____________P AL041893 39.61 -73.96 HU 77 1 39.73 -73.84 HU 77 979 20 358
1893 NA NA 12:00:00 TS 40.70 -73.90 75 986 hurdat_atl 0 0 O____________O hurdat_atl AL041893 40.70 -73.90 L HU 75 986 1 40.70 -73.90 HU 75 986 22 6
1893 NA NA 15:00:00 TS 41.82 -73.60 0 0 P____________P AL041893 41.83 -73.60 HU 67 1 41.81 -73.62 HU 67 24 16
1893 NA NA 18:00:00 TS 43.00 -73.00 60 hurdat_atl 0 0 O____________O hurdat_atl AL041893 43.00 -73.00 TS 60 0 43.00 -73.00 TS 60 26 24
1893 NA NA 21:00:00 TS 44.22 -72.12 0 0 P____________P AL041893 44.22 -72.12 TS 57 0 44.22 -72.12 TS 57 28 31
1893 NA NA 1893-08-25 00:00:00 ET 45.40 -71.00 55 hurdat_atl 0 0 O____________O hurdat_atl AL041893 45.40 -71.00 EX 55 -4 45.40 -71.00 EX 55 28 37
1893 NA NA 03:00:00 ET 46.44 -69.78 0 0 P____________P AL041893 46.44 -69.78 EX 52 -4 46.44 -69.78 EX 52 26 41
1893 NA NA 06:00:00 ET 47.40 -68.50 50 hurdat_atl 0 0 O____________O hurdat_atl AL041893 47.40 -68.50 EX 50 -4 47.40 -68.50 EX 50 26 41
1893 NA NA 09:00:00 ET 48.40 -67.28 0 0 P____________P AL041893 48.40 -67.28 EX 45 -4 48.40 -67.28 EX 45 25 41
1893 NA NA 12:00:00 ET 49.30 -66.00 40 hurdat_atl 11 11 O____________O hurdat_atl AL041893 49.30 -66.00 EX 40 -4 49.30 -66.00 EX 40 24 46
1893 NA NA 15:00:00 ET 50.05 -64.62 22 0 P____________P AL041893 50.05 -64.62 EX 42 -4 50.05 -64.62 EX 42 23 55
1893 NA NA 18:00:00 ET 50.60 -63.10 45 hurdat_atl 0 0 O____________O hurdat_atl AL041893 50.60 -63.10 EX 45 -4 50.60 -63.10 EX 45 22 66
1893 NA NA 21:00:00 ET 50.95 -61.42 0 0 P____________P AL041893 50.95 -61.42 EX 42 -4 50.95 -61.42 EX 42 22 77
1893 NA NA 1893-08-26 00:00:00 ET 51.10 -59.70 40 hurdat_atl 0 0 O____________O hurdat_atl AL041893 51.10 -59.70 EX 40 -4 51.10 -59.70 EX 40 21 84
1893 NA NA 03:00:00 ET 51.17 -58.05 11 0 P____________P AL041893 51.17 -58.05 EX 40 -4 51.17 -58.05 EX 40 20 90
1893 NA NA 06:00:00 ET 51.10 -56.50 40 hurdat_atl 0 0 O____________O hurdat_atl AL041893 51.10 -56.50 EX 40 -4 51.10 -56.50 EX 40 19 97
1893 NA NA 09:00:00 ET 50.95 -55.09 43 43 P____________P AL041893 50.95 -55.09 EX 40 -4 50.95 -55.09 EX 40 17 103
1893 NA NA 12:00:00 ET 50.70 -53.80 40 hurdat_atl 139 129 O____________O hurdat_atl AL041893 50.70 -53.80 EX 40 -4 50.70 -53.80 EX 40 17 110
1893 NA NA 15:00:00 ET 50.37 -52.58 137 135 P____________P AL041893 50.37 -52.58 EX 40 -4 50.37 -52.58 EX 40 17 115
1893 NA NA 18:00:00 ET 50.00 -51.40 40 hurdat_atl 169 O____________O hurdat_atl AL041893 50.00 -51.40 EX 40 -4 50.00 -51.40 EX 40 17 116